sensor_id;sensor_type;location;lat;lon;timestamp;P1;durP1;ratioP1;P2;durP2;ratioP2
16626;SDS011;8427;52.204;7.202;2023-07-29T00:00:53;42.57;;;40.27;;
16626;SDS011;8427;52.204;7.202;2023-07-29T00:03:22;40.33;;;38.17;;
16626;SDS011;8427;52.204;7.202;2023-07-29T00:05:50;42.07;;;39.83;;
16626;SDS011;8427;52.204;7.202;2023-07-29T00:08:18;41.83;;;39.53;;
16626;SDS011;8427;52.204;7.202;2023-07-29T00:10:46;40.17;;;38.10;;
16626;SDS011;8427;52.204;7.202;2023-07-29T00:13:14;41.50;;;39.30;;
16626;SDS011;8427;52.204;7.202;2023-07-29T00:15:43;40.38;;;38.28;;
16626;SDS011;8427;52.204;7.202;2023-07-29T00:18:11;40.37;;;38.20;;
16626;SDS011;8427;52.204;7.202;2023-07-29T00:20:39;40.43;;;38.27;;
16626;SDS011;8427;52.204;7.202;2023-07-29T00:23:08;41.10;;;38.90;;
16626;SDS011;8427;52.204;7.202;2023-07-29T00:25:36;41.60;;;39.37;;
16626;SDS011;8427;52.204;7.202;2023-07-29T00:28:04;41.33;;;39.13;;
16626;SDS011;8427;52.204;7.202;2023-07-29T00:30:32;42.90;;;40.43;;
16626;SDS011;8427;52.204;7.202;2023-07-29T00:33:01;41.57;;;39.37;;
16626;SDS011;8427;52.204;7.202;2023-07-29T00:35:29;42.57;;;40.17;;
16626;SDS011;8427;52.204;7.202;2023-07-29T00:37:57;41.90;;;39.60;;
16626;SDS011;8427;52.204;7.202;2023-07-29T00:40:26;41.60;;;39.37;;
16626;SDS011;8427;52.204;7.202;2023-07-29T00:42:56;39.53;;;37.63;;
16626;SDS011;8427;52.204;7.202;2023-07-29T00:45:24;42.27;;;39.97;;
16626;SDS011;8427;52.204;7.202;2023-07-29T00:47:53;42.20;;;39.93;;
16626;SDS011;8427;52.204;7.202;2023-07-29T00:50:22;41.43;;;39.20;;
16626;SDS011;8427;52.204;7.202;2023-07-29T00:52:51;41.90;;;39.70;;
16626;SDS011;8427;52.204;7.202;2023-07-29T00:55:19;41.23;;;39.03;;
16626;SDS011;8427;52.204;7.202;2023-07-29T00:57:47;43.28;;;40.97;;
16626;SDS011;8427;52.204;7.202;2023-07-29T01:00:18;43.17;;;40.87;;
16626;SDS011;8427;52.204;7.202;2023-07-29T01:02:46;42.00;;;39.80;;
16626;SDS011;8427;52.204;7.202;2023-07-29T01:05:14;42.40;;;40.10;;
16626;SDS011;8427;52.204;7.202;2023-07-29T01:07:49;43.60;;;41.20;;
16626;SDS011;8427;52.204;7.202;2023-07-29T01:10:26;43.63;;;41.23;;
16626;SDS011;8427;52.204;7.202;2023-07-29T01:13:01;43.03;;;40.67;;
16626;SDS011;8427;52.204;7.202;2023-07-29T01:15:39;42.20;;;40.00;;
16626;SDS011;8427;52.204;7.202;2023-07-29T01:18:14;42.70;;;40.40;;
16626;SDS011;8427;52.204;7.202;2023-07-29T01:20:48;43.43;;;41.03;;
16626;SDS011;8427;52.204;7.202;2023-07-29T01:23:23;42.97;;;40.67;;
16626;SDS011;8427;52.204;7.202;2023-07-29T01:25:52;43.33;;;41.00;;
16626;SDS011;8427;52.204;7.202;2023-07-29T01:28:20;42.53;;;40.23;;
16626;SDS011;8427;52.204;7.202;2023-07-29T01:30:49;44.20;;;41.70;;
16626;SDS011;8427;52.204;7.202;2023-07-29T01:33:20;44.50;;;42.00;;
16626;SDS011;8427;52.204;7.202;2023-07-29T01:35:54;45.60;;;43.00;;
16626;SDS011;8427;52.204;7.202;2023-07-29T01:38:32;44.20;;;41.80;;
16626;SDS011;8427;52.204;7.202;2023-07-29T01:41:02;46.40;;;43.70;;
16626;SDS011;8427;52.204;7.202;2023-07-29T01:43:30;41.73;;;39.53;;
16626;SDS011;8427;52.204;7.202;2023-07-29T01:45:59;41.70;;;39.57;;
16626;SDS011;8427;52.204;7.202;2023-07-29T01:48:28;41.07;;;38.97;;
16626;SDS011;8427;52.204;7.202;2023-07-29T01:50:56;41.63;;;39.53;;
16626;SDS011;8427;52.204;7.202;2023-07-29T01:53:24;41.30;;;39.20;;
16626;SDS011;8427;52.204;7.202;2023-07-29T01:55:54;40.77;;;38.77;;
16626;SDS011;8427;52.204;7.202;2023-07-29T01:58:23;39.60;;;37.70;;
16626;SDS011;8427;52.204;7.202;2023-07-29T02:00:51;40.10;;;38.10;;
16626;SDS011;8427;52.204;7.202;2023-07-29T02:03:19;40.53;;;38.53;;
16626;SDS011;8427;52.204;7.202;2023-07-29T02:05:47;38.60;;;36.90;;
16626;SDS011;8427;52.204;7.202;2023-07-29T02:08:15;38.93;;;37.10;;
16626;SDS011;8427;52.204;7.202;2023-07-29T02:10:43;38.67;;;36.83;;
16626;SDS011;8427;52.204;7.202;2023-07-29T02:13:13;38.07;;;36.27;;
16626;SDS011;8427;52.204;7.202;2023-07-29T02:15:41;39.43;;;37.47;;
16626;SDS011;8427;52.204;7.202;2023-07-29T02:18:09;38.87;;;37.00;;
16626;SDS011;8427;52.204;7.202;2023-07-29T02:20:37;39.30;;;37.40;;
16626;SDS011;8427;52.204;7.202;2023-07-29T02:23:05;37.47;;;35.83;;
16626;SDS011;8427;52.204;7.202;2023-07-29T02:25:34;39.20;;;37.30;;
16626;SDS011;8427;52.204;7.202;2023-07-29T02:28:03;38.90;;;37.00;;
16626;SDS011;8427;52.204;7.202;2023-07-29T02:30:33;37.60;;;35.90;;
16626;SDS011;8427;52.204;7.202;2023-07-29T02:33:00;38.20;;;36.40;;
16626;SDS011;8427;52.204;7.202;2023-07-29T02:35:29;37.53;;;35.83;;
16626;SDS011;8427;52.204;7.202;2023-07-29T02:37:57;38.83;;;37.03;;
16626;SDS011;8427;52.204;7.202;2023-07-29T02:40:25;39.30;;;37.40;;
16626;SDS011;8427;52.204;7.202;2023-07-29T02:42:53;39.20;;;37.40;;
16626;SDS011;8427;52.204;7.202;2023-07-29T02:45:21;38.23;;;36.43;;
16626;SDS011;8427;52.204;7.202;2023-07-29T02:47:50;39.80;;;37.90;;
16626;SDS011;8427;52.204;7.202;2023-07-29T02:50:19;40.73;;;38.70;;
16626;SDS011;8427;52.204;7.202;2023-07-29T02:52:47;39.47;;;37.57;;
16626;SDS011;8427;52.204;7.202;2023-07-29T02:55:17;38.77;;;36.97;;
16626;SDS011;8427;52.204;7.202;2023-07-29T02:57:44;40.00;;;38.13;;
16626;SDS011;8427;52.204;7.202;2023-07-29T03:00:13;39.43;;;37.53;;
16626;SDS011;8427;52.204;7.202;2023-07-29T03:02:41;40.57;;;38.67;;
16626;SDS011;8427;52.204;7.202;2023-07-29T03:05:11;42.60;;;40.40;;
16626;SDS011;8427;52.204;7.202;2023-07-29T03:07:39;40.50;;;38.60;;
16626;SDS011;8427;52.204;7.202;2023-07-29T03:10:07;40.17;;;38.30;;
16626;SDS011;8427;52.204;7.202;2023-07-29T03:12:35;40.77;;;38.80;;
16626;SDS011;8427;52.204;7.202;2023-07-29T03:15:03;40.70;;;38.77;;
16626;SDS011;8427;52.204;7.202;2023-07-29T03:17:32;69.20;;;62.30;;
16626;SDS011;8427;52.204;7.202;2023-07-29T03:20:00;66.70;;;59.97;;
16626;SDS011;8427;52.204;7.202;2023-07-29T03:22:29;41.35;;;39.35;;
16626;SDS011;8427;52.204;7.202;2023-07-29T03:24:57;43.03;;;40.93;;
16626;SDS011;8427;52.204;7.202;2023-07-29T03:27:25;43.03;;;40.87;;
16626;SDS011;8427;52.204;7.202;2023-07-29T03:29:53;44.70;;;42.40;;
16626;SDS011;8427;52.204;7.202;2023-07-29T03:32:21;46.37;;;43.87;;
16626;SDS011;8427;52.204;7.202;2023-07-29T03:34:49;41.67;;;39.60;;
16626;SDS011;8427;52.204;7.202;2023-07-29T03:37:17;41.50;;;39.40;;
16626;SDS011;8427;52.204;7.202;2023-07-29T03:39:46;40.93;;;38.93;;
16626;SDS011;8427;52.204;7.202;2023-07-29T03:42:14;42.53;;;40.43;;
16626;SDS011;8427;52.204;7.202;2023-07-29T03:44:42;43.37;;;41.17;;
16626;SDS011;8427;52.204;7.202;2023-07-29T03:47:10;42.73;;;40.53;;
16626;SDS011;8427;52.204;7.202;2023-07-29T03:49:38;45.70;;;43.30;;
16626;SDS011;8427;52.204;7.202;2023-07-29T03:52:06;44.50;;;42.20;;
16626;SDS011;8427;52.204;7.202;2023-07-29T03:54:34;49.37;;;46.37;;
16626;SDS011;8427;52.204;7.202;2023-07-29T03:57:04;50.90;;;47.70;;
16626;SDS011;8427;52.204;7.202;2023-07-29T03:59:32;43.83;;;41.53;;
16626;SDS011;8427;52.204;7.202;2023-07-29T04:02:00;45.43;;;43.03;;
16626;SDS011;8427;52.204;7.202;2023-07-29T04:04:28;46.90;;;44.30;;
16626;SDS011;8427;52.204;7.202;2023-07-29T04:06:56;46.70;;;44.10;;
16626;SDS011;8427;52.204;7.202;2023-07-29T04:09:25;48.30;;;45.50;;
16626;SDS011;8427;52.204;7.202;2023-07-29T04:11:53;44.53;;;42.20;;
16626;SDS011;8427;52.204;7.202;2023-07-29T04:14:22;46.80;;;44.30;;
16626;SDS011;8427;52.204;7.202;2023-07-29T04:16:50;56.83;;;52.13;;
16626;SDS011;8427;52.204;7.202;2023-07-29T04:19:18;54.17;;;50.27;;
16626;SDS011;8427;52.204;7.202;2023-07-29T04:21:46;49.90;;;46.90;;
16626;SDS011;8427;52.204;7.202;2023-07-29T04:24:14;55.47;;;50.87;;
16626;SDS011;8427;52.204;7.202;2023-07-29T04:26:41;52.83;;;49.23;;
16626;SDS011;8427;52.204;7.202;2023-07-29T04:29:09;43.43;;;41.23;;
16626;SDS011;8427;52.204;7.202;2023-07-29T04:31:39;37.90;;;36.30;;
16626;SDS011;8427;52.204;7.202;2023-07-29T04:34:07;43.67;;;41.37;;
16626;SDS011;8427;52.204;7.202;2023-07-29T04:36:35;43.10;;;40.90;;
16626;SDS011;8427;52.204;7.202;2023-07-29T04:39:03;43.53;;;41.30;;
16626;SDS011;8427;52.204;7.202;2023-07-29T04:41:31;43.43;;;41.23;;
16626;SDS011;8427;52.204;7.202;2023-07-29T04:43:59;42.27;;;40.17;;
16626;SDS011;8427;52.204;7.202;2023-07-29T04:46:27;43.43;;;41.23;;
16626;SDS011;8427;52.204;7.202;2023-07-29T04:48:56;43.33;;;41.13;;
16626;SDS011;8427;52.204;7.202;2023-07-29T04:51:24;46.20;;;43.70;;
16626;SDS011;8427;52.204;7.202;2023-07-29T04:53:52;46.80;;;44.20;;
16626;SDS011;8427;52.204;7.202;2023-07-29T04:56:20;52.33;;;48.83;;
16626;SDS011;8427;52.204;7.202;2023-07-29T04:58:48;55.07;;;50.97;;
16626;SDS011;8427;52.204;7.202;2023-07-29T05:01:16;46.37;;;43.57;;
16626;SDS011;8427;52.204;7.202;2023-07-29T05:03:44;53.17;;;48.77;;
16626;SDS011;8427;52.204;7.202;2023-07-29T05:06:14;56.23;;;50.93;;
16626;SDS011;8427;52.204;7.202;2023-07-29T05:38:16;30.90;;;30.00;;
16626;SDS011;8427;52.204;7.202;2023-07-29T05:40:45;32.20;;;31.20;;
16626;SDS011;8427;52.204;7.202;2023-07-29T05:43:15;33.00;;;31.90;;
16626;SDS011;8427;52.204;7.202;2023-07-29T05:45:43;34.43;;;33.23;;
16626;SDS011;8427;52.204;7.202;2023-07-29T05:48:11;34.10;;;32.90;;
16626;SDS011;8427;52.204;7.202;2023-07-29T05:50:48;34.13;;;32.97;;
16626;SDS011;8427;52.204;7.202;2023-07-29T05:53:16;33.85;;;32.70;;
16626;SDS011;8427;52.204;7.202;2023-07-29T05:55:45;34.67;;;33.47;;
16626;SDS011;8427;52.204;7.202;2023-07-29T05:58:13;34.20;;;33.00;;
16626;SDS011;8427;52.204;7.202;2023-07-29T06:00:42;34.90;;;33.70;;
16626;SDS011;8427;52.204;7.202;2023-07-29T06:03:10;35.80;;;34.50;;
16626;SDS011;8427;52.204;7.202;2023-07-29T06:05:38;36.80;;;35.40;;
16626;SDS011;8427;52.204;7.202;2023-07-29T06:08:06;35.20;;;34.00;;
16626;SDS011;8427;52.204;7.202;2023-07-29T06:10:35;36.30;;;35.00;;
16626;SDS011;8427;52.204;7.202;2023-07-29T06:13:05;38.77;;;37.07;;
16626;SDS011;8427;52.204;7.202;2023-07-29T06:15:33;36.70;;;35.30;;
16626;SDS011;8427;52.204;7.202;2023-07-29T06:18:01;37.20;;;35.70;;
16626;SDS011;8427;52.204;7.202;2023-07-29T06:20:29;37.07;;;35.63;;
16626;SDS011;8427;52.204;7.202;2023-07-29T06:22:57;37.57;;;36.03;;
16626;SDS011;8427;52.204;7.202;2023-07-29T06:25:25;37.10;;;35.70;;
16626;SDS011;8427;52.204;7.202;2023-07-29T06:27:53;38.13;;;36.53;;
16626;SDS011;8427;52.204;7.202;2023-07-29T06:30:23;38.20;;;36.60;;
16626;SDS011;8427;52.204;7.202;2023-07-29T06:32:51;39.13;;;37.43;;
16626;SDS011;8427;52.204;7.202;2023-07-29T06:35:19;41.20;;;39.20;;
16626;SDS011;8427;52.204;7.202;2023-07-29T06:37:47;41.20;;;39.20;;
16626;SDS011;8427;52.204;7.202;2023-07-29T06:40:15;40.97;;;38.87;;
16626;SDS011;8427;52.204;7.202;2023-07-29T06:42:43;43.03;;;40.73;;
16626;SDS011;8427;52.204;7.202;2023-07-29T06:45:12;43.43;;;40.87;;
16626;SDS011;8427;52.204;7.202;2023-07-29T06:47:43;43.40;;;40.80;;
16626;SDS011;8427;52.204;7.202;2023-07-29T06:50:12;46.47;;;43.37;;
16626;SDS011;8427;52.204;7.202;2023-07-29T06:52:40;45.50;;;42.40;;
16626;SDS011;8427;52.204;7.202;2023-07-29T06:55:08;47.80;;;44.40;;
16626;SDS011;8427;52.204;7.202;2023-07-29T06:57:36;47.07;;;43.57;;
16626;SDS011;8427;52.204;7.202;2023-07-29T07:00:05;46.87;;;43.47;;
16626;SDS011;8427;52.204;7.202;2023-07-29T07:02:35;47.37;;;43.97;;
16626;SDS011;8427;52.204;7.202;2023-07-29T07:05:05;47.97;;;44.30;;
16626;SDS011;8427;52.204;7.202;2023-07-29T07:07:33;47.63;;;43.87;;
16626;SDS011;8427;52.204;7.202;2023-07-29T07:10:01;49.37;;;45.00;;
16626;SDS011;8427;52.204;7.202;2023-07-29T07:12:29;48.40;;;44.30;;
16626;SDS011;8427;52.204;7.202;2023-07-29T07:14:57;48.27;;;44.27;;
16626;SDS011;8427;52.204;7.202;2023-07-29T07:17:25;48.30;;;44.30;;
16626;SDS011;8427;52.204;7.202;2023-07-29T07:19:53;49.90;;;45.60;;
16626;SDS011;8427;52.204;7.202;2023-07-29T07:22:22;48.20;;;44.40;;
16626;SDS011;8427;52.204;7.202;2023-07-29T07:24:51;51.83;;;46.90;;
16626;SDS011;8427;52.204;7.202;2023-07-29T07:27:19;48.23;;;44.43;;
16626;SDS011;8427;52.204;7.202;2023-07-29T07:29:47;52.90;;;48.50;;
16626;SDS011;8427;52.204;7.202;2023-07-29T07:32:15;51.00;;;46.67;;
16626;SDS011;8427;52.204;7.202;2023-07-29T07:34:43;50.23;;;45.83;;
16626;SDS011;8427;52.204;7.202;2023-07-29T07:37:11;49.67;;;45.40;;
16626;SDS011;8427;52.204;7.202;2023-07-29T07:39:41;48.60;;;44.50;;
16626;SDS011;8427;52.204;7.202;2023-07-29T07:42:09;49.03;;;44.73;;
16626;SDS011;8427;52.204;7.202;2023-07-29T07:44:37;50.80;;;46.20;;
16626;SDS011;8427;52.204;7.202;2023-07-29T07:47:05;50.40;;;45.80;;
16626;SDS011;8427;52.204;7.202;2023-07-29T07:49:33;51.07;;;46.07;;
16626;SDS011;8427;52.204;7.202;2023-07-29T19:40:00;48.45;;;44.85;;
16626;SDS011;8427;52.204;7.202;2023-07-29T19:42:29;47.60;;;44.10;;
16626;SDS011;8427;52.204;7.202;2023-07-29T19:44:57;46.87;;;43.47;;
16626;SDS011;8427;52.204;7.202;2023-07-29T19:47:24;48.00;;;44.30;;
16626;SDS011;8427;52.204;7.202;2023-07-29T19:49:54;50.53;;;46.33;;
16626;SDS011;8427;52.204;7.202;2023-07-29T19:52:22;50.03;;;45.80;;
16626;SDS011;8427;52.204;7.202;2023-07-29T19:54:50;52.23;;;47.60;;
16626;SDS011;8427;52.204;7.202;2023-07-29T19:57:18;53.77;;;48.57;;
16626;SDS011;8427;52.204;7.202;2023-07-29T19:59:46;55.87;;;49.77;;
16626;SDS011;8427;52.204;7.202;2023-07-29T20:02:15;62.10;;;50.27;;
16626;SDS011;8427;52.204;7.202;2023-07-29T20:04:48;73.37;;;52.33;;
16626;SDS011;8427;52.204;7.202;2023-07-29T20:07:18;68.83;;;51.40;;
16626;SDS011;8427;52.204;7.202;2023-07-29T20:09:46;79.47;;;53.60;;
16626;SDS011;8427;52.204;7.202;2023-07-29T20:12:14;98.03;;;54.60;;
16626;SDS011;8427;52.204;7.202;2023-07-29T20:14:42;100.27;;;56.80;;
16626;SDS011;8427;52.204;7.202;2023-07-29T20:17:10;98.87;;;54.70;;
16626;SDS011;8427;52.204;7.202;2023-07-29T20:19:38;80.23;;;53.60;;
16626;SDS011;8427;52.204;7.202;2023-07-29T20:22:06;61.83;;;48.67;;
16626;SDS011;8427;52.204;7.202;2023-07-29T20:24:36;46.77;;;36.13;;
16626;SDS011;8427;52.204;7.202;2023-07-29T20:27:04;90.47;;;56.50;;
16626;SDS011;8427;52.204;7.202;2023-07-29T20:29:32;121.17;;;73.80;;
16626;SDS011;8427;52.204;7.202;2023-07-29T20:32:00;54.27;;;49.00;;
16626;SDS011;8427;52.204;7.202;2023-07-29T20:34:28;56.70;;;50.60;;
16626;SDS011;8427;52.204;7.202;2023-07-29T20:36:56;58.70;;;52.30;;
16626;SDS011;8427;52.204;7.202;2023-07-29T20:39:24;56.40;;;50.50;;
16626;SDS011;8427;52.204;7.202;2023-07-29T20:41:54;98.43;;;58.43;;
16626;SDS011;8427;52.204;7.202;2023-07-29T20:44:22;56.93;;;50.73;;
16626;SDS011;8427;52.204;7.202;2023-07-29T20:46:50;49.40;;;45.63;;
16626;SDS011;8427;52.204;7.202;2023-07-29T20:49:18;50.93;;;46.87;;
16626;SDS011;8427;52.204;7.202;2023-07-29T20:51:47;52.03;;;47.73;;
16626;SDS011;8427;52.204;7.202;2023-07-29T20:54:15;51.00;;;47.00;;
16626;SDS011;8427;52.204;7.202;2023-07-29T20:56:43;50.70;;;46.63;;
16626;SDS011;8427;52.204;7.202;2023-07-29T20:59:13;91.47;;;56.43;;
16626;SDS011;8427;52.204;7.202;2023-07-29T21:01:40;95.47;;;56.87;;
16626;SDS011;8427;52.204;7.202;2023-07-29T21:04:09;84.10;;;55.10;;
16626;SDS011;8427;52.204;7.202;2023-07-29T21:06:37;104.77;;;60.43;;
16626;SDS011;8427;52.204;7.202;2023-07-29T21:09:05;102.17;;;58.80;;
16626;SDS011;8427;52.204;7.202;2023-07-29T21:11:33;54.40;;;49.47;;
16626;SDS011;8427;52.204;7.202;2023-07-29T21:14:02;45.10;;;42.45;;
16626;SDS011;8427;52.204;7.202;2023-07-29T21:16:31;43.63;;;41.20;;
16626;SDS011;8427;52.204;7.202;2023-07-29T21:18:59;43.45;;;40.95;;
16626;SDS011;8427;52.204;7.202;2023-07-29T21:21:27;44.50;;;41.80;;
16626;SDS011;8427;52.204;7.202;2023-07-29T21:23:56;46.47;;;43.37;;
16626;SDS011;8427;52.204;7.202;2023-07-29T21:26:24;57.20;;;49.53;;
16626;SDS011;8427;52.204;7.202;2023-07-29T21:28:52;76.97;;;54.90;;
16626;SDS011;8427;52.204;7.202;2023-07-29T21:31:20;109.57;;;73.10;;
16626;SDS011;8427;52.204;7.202;2023-07-29T21:33:49;62.87;;;50.30;;
16626;SDS011;8427;52.204;7.202;2023-07-29T21:36:17;62.43;;;51.40;;
16626;SDS011;8427;52.204;7.202;2023-07-29T21:38:45;54.23;;;48.67;;
16626;SDS011;8427;52.204;7.202;2023-07-29T21:41:13;60.83;;;50.57;;
16626;SDS011;8427;52.204;7.202;2023-07-29T21:43:41;41.87;;;39.77;;
16626;SDS011;8427;52.204;7.202;2023-07-29T21:46:09;42.17;;;40.17;;
16626;SDS011;8427;52.204;7.202;2023-07-29T21:48:38;41.00;;;39.10;;
16626;SDS011;8427;52.204;7.202;2023-07-29T21:51:07;40.70;;;38.80;;
16626;SDS011;8427;52.204;7.202;2023-07-29T21:53:36;40.07;;;38.27;;
16626;SDS011;8427;52.204;7.202;2023-07-29T21:56:04;66.57;;;53.27;;
16626;SDS011;8427;52.204;7.202;2023-07-29T21:58:32;43.30;;;41.00;;
16626;SDS011;8427;52.204;7.202;2023-07-29T22:01:00;42.23;;;40.23;;
16626;SDS011;8427;52.204;7.202;2023-07-29T22:03:28;79.23;;;60.43;;
16626;SDS011;8427;52.204;7.202;2023-07-29T22:06:01;38.40;;;36.80;;
16626;SDS011;8427;52.204;7.202;2023-07-29T22:08:31;39.90;;;38.10;;
16626;SDS011;8427;52.204;7.202;2023-07-29T22:11:00;42.83;;;40.63;;
16626;SDS011;8427;52.204;7.202;2023-07-29T22:13:29;41.00;;;39.10;;
16626;SDS011;8427;52.204;7.202;2023-07-29T22:15:59;41.07;;;39.17;;
16626;SDS011;8427;52.204;7.202;2023-07-29T22:18:27;39.60;;;37.80;;
16626;SDS011;8427;52.204;7.202;2023-07-29T22:20:57;38.80;;;37.20;;
16626;SDS011;8427;52.204;7.202;2023-07-29T22:23:26;70.60;;;55.30;;
16626;SDS011;8427;52.204;7.202;2023-07-29T22:25:57;65.53;;;53.77;;
16626;SDS011;8427;52.204;7.202;2023-07-29T22:28:26;40.07;;;38.27;;
16626;SDS011;8427;52.204;7.202;2023-07-29T22:30:55;37.80;;;36.30;;
16626;SDS011;8427;52.204;7.202;2023-07-29T22:33:26;36.50;;;35.10;;
16626;SDS011;8427;52.204;7.202;2023-07-29T22:35:55;37.93;;;36.43;;
16626;SDS011;8427;52.204;7.202;2023-07-29T22:38:25;38.20;;;36.60;;
16626;SDS011;8427;52.204;7.202;2023-07-29T22:40:54;38.57;;;36.97;;
16626;SDS011;8427;52.204;7.202;2023-07-29T22:43:24;40.10;;;38.27;;
16626;SDS011;8427;52.204;7.202;2023-07-29T22:45:53;38.47;;;36.87;;
16626;SDS011;8427;52.204;7.202;2023-07-29T22:48:22;37.90;;;36.40;;
16626;SDS011;8427;52.204;7.202;2023-07-29T22:50:51;36.87;;;35.40;;
16626;SDS011;8427;52.204;7.202;2023-07-29T22:53:19;37.00;;;35.50;;
16626;SDS011;8427;52.204;7.202;2023-07-29T22:55:48;36.60;;;35.20;;
16626;SDS011;8427;52.204;7.202;2023-07-29T22:58:17;37.07;;;35.67;;
16626;SDS011;8427;52.204;7.202;2023-07-29T23:00:48;38.43;;;36.83;;
16626;SDS011;8427;52.204;7.202;2023-07-29T23:03:17;41.80;;;39.70;;
16626;SDS011;8427;52.204;7.202;2023-07-29T23:05:46;42.70;;;40.60;;
16626;SDS011;8427;52.204;7.202;2023-07-29T23:08:14;41.83;;;39.73;;
16626;SDS011;8427;52.204;7.202;2023-07-29T23:10:42;40.63;;;38.73;;
16626;SDS011;8427;52.204;7.202;2023-07-29T23:13:11;41.73;;;39.63;;
16626;SDS011;8427;52.204;7.202;2023-07-29T23:15:39;41.33;;;39.33;;
16626;SDS011;8427;52.204;7.202;2023-07-29T23:18:10;42.80;;;40.50;;
16626;SDS011;8427;52.204;7.202;2023-07-29T23:20:39;42.00;;;39.90;;
16626;SDS011;8427;52.204;7.202;2023-07-29T23:23:07;42.97;;;40.70;;
16626;SDS011;8427;52.204;7.202;2023-07-29T23:25:35;40.33;;;38.43;;
16626;SDS011;8427;52.204;7.202;2023-07-29T23:28:03;39.07;;;37.33;;
16626;SDS011;8427;52.204;7.202;2023-07-29T23:30:32;37.90;;;36.30;;
16626;SDS011;8427;52.204;7.202;2023-07-29T23:33:00;38.50;;;36.90;;
16626;SDS011;8427;52.204;7.202;2023-07-29T23:35:30;39.50;;;37.70;;
16626;SDS011;8427;52.204;7.202;2023-07-29T23:37:58;36.57;;;35.10;;
16626;SDS011;8427;52.204;7.202;2023-07-29T23:40:26;38.07;;;36.47;;
16626;SDS011;8427;52.204;7.202;2023-07-29T23:42:54;38.63;;;36.93;;
16626;SDS011;8427;52.204;7.202;2023-07-29T23:45:22;37.70;;;36.10;;
16626;SDS011;8427;52.204;7.202;2023-07-29T23:47:50;39.07;;;37.17;;
16626;SDS011;8427;52.204;7.202;2023-07-29T23:50:19;36.00;;;34.60;;
16626;SDS011;8427;52.204;7.202;2023-07-29T23:52:48;36.30;;;34.90;;
16626;SDS011;8427;52.204;7.202;2023-07-29T23:55:16;68.03;;;61.10;;
16626;SDS011;8427;52.204;7.202;2023-07-29T23:57:44;37.53;;;35.93;;
